sensor_id;sensor_type;location;lat;lon;timestamp;pressure;altitude;pressure_sealevel;temperature;humidity
10978;BME280;5542;48.272;10.794;2022-10-31T00:01:10;96185.84;;;11.29;81.42
10978;BME280;5542;48.272;10.794;2022-10-31T00:03:36;96186.06;;;11.27;81.19
10978;BME280;5542;48.272;10.794;2022-10-31T00:06:03;96188.78;;;11.21;81.70
10978;BME280;5542;48.272;10.794;2022-10-31T00:08:30;96187.53;;;11.23;81.61
10978;BME280;5542;48.272;10.794;2022-10-31T00:10:57;96182.03;;;11.25;81.66
10978;BME280;5542;48.272;10.794;2022-10-31T00:13:24;96184.66;;;11.25;82.04
10978;BME280;5542;48.272;10.794;2022-10-31T00:15:50;96185.84;;;11.29;82.30
10978;BME280;5542;48.272;10.794;2022-10-31T00:18:17;96186.63;;;11.29;82.27
10978;BME280;5542;48.272;10.794;2022-10-31T00:20:44;96189.06;;;11.31;81.74
10978;BME280;5542;48.272;10.794;2022-10-31T00:23:10;96191.09;;;11.29;81.26
10978;BME280;5542;48.272;10.794;2022-10-31T00:25:38;96194.19;;;11.26;80.73
10978;BME280;5542;48.272;10.794;2022-10-31T00:28:09;96190.00;;;11.18;81.16
10978;BME280;5542;48.272;10.794;2022-10-31T00:30:37;96192.75;;;11.12;81.58
10978;BME280;5542;48.272;10.794;2022-10-31T00:33:03;96196.22;;;11.06;82.27
10978;BME280;5542;48.272;10.794;2022-10-31T00:35:30;96192.38;;;11.08;82.50
10978;BME280;5542;48.272;10.794;2022-10-31T00:37:57;96189.81;;;11.01;82.69
10978;BME280;5542;48.272;10.794;2022-10-31T00:40:23;96191.47;;;10.96;83.31
10978;BME280;5542;48.272;10.794;2022-10-31T00:42:50;96191.47;;;10.96;83.82
10978;BME280;5542;48.272;10.794;2022-10-31T00:45:18;96190.91;;;10.94;83.60
10978;BME280;5542;48.272;10.794;2022-10-31T00:47:45;96195.13;;;10.95;84.06
10978;BME280;5542;48.272;10.794;2022-10-31T00:50:11;96195.56;;;10.92;84.17
10978;BME280;5542;48.272;10.794;2022-10-31T00:52:38;96194.34;;;10.94;84.28
10978;BME280;5542;48.272;10.794;2022-10-31T00:55:05;96193.53;;;10.94;84.44
10978;BME280;5542;48.272;10.794;2022-10-31T00:57:31;96201.34;;;11.00;83.75
10978;BME280;5542;48.272;10.794;2022-10-31T00:59:58;96200.13;;;11.03;83.43
10978;BME280;5542;48.272;10.794;2022-10-31T01:02:26;96191.63;;;11.01;83.41
10978;BME280;5542;48.272;10.794;2022-10-31T01:04:52;96196.31;;;10.99;83.15
10978;BME280;5542;48.272;10.794;2022-10-31T01:07:19;96202.50;;;10.86;83.75
10978;BME280;5542;48.272;10.794;2022-10-31T01:09:45;96195.63;;;10.85;84.11
10978;BME280;5542;48.272;10.794;2022-10-31T01:12:12;96207.34;;;10.89;83.70
10978;BME280;5542;48.272;10.794;2022-10-31T01:14:42;96204.56;;;10.84;84.08
10978;BME280;5542;48.272;10.794;2022-10-31T01:17:09;96200.53;;;10.82;84.60
10978;BME280;5542;48.272;10.794;2022-10-31T01:19:37;96197.69;;;10.83;84.64
10978;BME280;5542;48.272;10.794;2022-10-31T01:22:04;96197.25;;;10.86;84.55
10978;BME280;5542;48.272;10.794;2022-10-31T01:24:30;96198.28;;;10.85;84.47
10978;BME280;5542;48.272;10.794;2022-10-31T01:26:57;96200.19;;;10.78;84.71
10978;BME280;5542;48.272;10.794;2022-10-31T01:29:23;96194.09;;;10.77;85.05
10978;BME280;5542;48.272;10.794;2022-10-31T01:31:50;96194.09;;;10.77;85.19
10978;BME280;5542;48.272;10.794;2022-10-31T01:34:17;96195.91;;;10.77;85.15
10978;BME280;5542;48.272;10.794;2022-10-31T01:36:45;96193.28;;;10.77;84.67
10978;BME280;5542;48.272;10.794;2022-10-31T01:39:17;96204.47;;;10.72;84.57
10978;BME280;5542;48.272;10.794;2022-10-31T01:41:45;96196.22;;;10.69;84.82
10978;BME280;5542;48.272;10.794;2022-10-31T01:47:18;96202.66;;;10.73;84.80
10978;BME280;5542;48.272;10.794;2022-10-31T01:49:48;96201.91;;;10.66;84.67
10978;BME280;5542;48.272;10.794;2022-10-31T01:52:22;96197.88;;;10.63;84.41
10978;BME280;5542;48.272;10.794;2022-10-31T01:54:54;96198.88;;;10.62;84.41
10978;BME280;5542;48.272;10.794;2022-10-31T01:57:24;96196.72;;;10.59;84.30
10978;BME280;5542;48.272;10.794;2022-10-31T01:59:55;96195.16;;;10.51;84.41
10978;BME280;5542;48.272;10.794;2022-10-31T02:02:24;96199.22;;;10.47;84.85
10978;BME280;5542;48.272;10.794;2022-10-31T02:04:52;96188.94;;;10.46;84.85
10978;BME280;5542;48.272;10.794;2022-10-31T02:07:25;96192.28;;;10.53;84.58
10978;BME280;5542;48.272;10.794;2022-10-31T02:09:53;96191.50;;;10.52;84.59
10978;BME280;5542;48.272;10.794;2022-10-31T02:12:21;96193.09;;;10.54;84.43
10978;BME280;5542;48.272;10.794;2022-10-31T02:14:48;96191.13;;;10.49;84.84
10978;BME280;5542;48.272;10.794;2022-10-31T02:17:15;96188.06;;;10.52;84.74
10978;BME280;5542;48.272;10.794;2022-10-31T02:19:49;96186.47;;;10.51;84.72
10978;BME280;5542;48.272;10.794;2022-10-31T02:22:25;96190.31;;;10.48;84.62
10978;BME280;5542;48.272;10.794;2022-10-31T02:25:01;96191.78;;;10.44;84.42
10978;BME280;5542;48.272;10.794;2022-10-31T02:28:09;96187.75;;;10.42;84.79
10978;BME280;5542;48.272;10.794;2022-10-31T02:30:53;96188.97;;;10.39;85.04
10978;BME280;5542;48.272;10.794;2022-10-31T02:33:23;96188.97;;;10.39;85.11
10978;BME280;5542;48.272;10.794;2022-10-31T02:35:59;96182.34;;;10.37;85.25
10978;BME280;5542;48.272;10.794;2022-10-31T02:38:39;96176.28;;;10.36;84.99
10978;BME280;5542;48.272;10.794;2022-10-31T02:41:16;96183.72;;;10.39;85.12
10978;BME280;5542;48.272;10.794;2022-10-31T02:43:52;96177.88;;;10.37;84.62
10978;BME280;5542;48.272;10.794;2022-10-31T02:46:25;96182.56;;;10.35;84.64
10978;BME280;5542;48.272;10.794;2022-10-31T02:48:57;96188.00;;;10.34;84.45
10978;BME280;5542;48.272;10.794;2022-10-31T02:51:27;96192.31;;;10.28;84.46
10978;BME280;5542;48.272;10.794;2022-10-31T02:53:53;96194.38;;;10.26;85.06
10978;BME280;5542;48.272;10.794;2022-10-31T02:56:20;96186.47;;;10.26;84.94
10978;BME280;5542;48.272;10.794;2022-10-31T02:58:49;96189.25;;;10.31;84.51
10978;BME280;5542;48.272;10.794;2022-10-31T03:01:30;96175.16;;;10.25;84.18
10978;BME280;5542;48.272;10.794;2022-10-31T03:04:16;96184.22;;;10.23;84.06
10978;BME280;5542;48.272;10.794;2022-10-31T03:06:49;96182.63;;;10.22;84.42
10978;BME280;5542;48.272;10.794;2022-10-31T03:09:23;96182.81;;;10.20;84.27
10978;BME280;5542;48.272;10.794;2022-10-31T03:11:57;96185.09;;;10.17;84.27
10978;BME280;5542;48.272;10.794;2022-10-31T03:14:31;96187.34;;;10.13;84.27
10978;BME280;5542;48.272;10.794;2022-10-31T03:17:06;96183.31;;;10.11;83.75
10978;BME280;5542;48.272;10.794;2022-10-31T03:19:39;96189.66;;;10.03;83.73
10978;BME280;5542;48.272;10.794;2022-10-31T03:22:12;96184.00;;;9.99;84.04
10978;BME280;5542;48.272;10.794;2022-10-31T03:24:41;96196.91;;;10.01;84.16
10978;BME280;5542;48.272;10.794;2022-10-31T03:27:12;96193.50;;;10.00;84.04
10978;BME280;5542;48.272;10.794;2022-10-31T03:29:42;96185.25;;;9.97;84.16
10978;BME280;5542;48.272;10.794;2022-10-31T03:32:14;96182.81;;;9.95;84.13
10978;BME280;5542;48.272;10.794;2022-10-31T03:34:44;96188.69;;;9.97;84.45
10978;BME280;5542;48.272;10.794;2022-10-31T03:37:13;96185.25;;;9.97;84.23
10978;BME280;5542;48.272;10.794;2022-10-31T03:39:43;96193.13;;;9.97;84.31
10978;BME280;5542;48.272;10.794;2022-10-31T03:42:15;96185.03;;;9.98;84.08
10978;BME280;5542;48.272;10.794;2022-10-31T03:44:46;96186.63;;;9.99;84.08
10978;BME280;5542;48.272;10.794;2022-10-31T03:47:16;96188.22;;;10.00;84.00
10978;BME280;5542;48.272;10.794;2022-10-31T03:49:43;96182.41;;;9.98;84.20
10978;BME280;5542;48.272;10.794;2022-10-31T03:52:16;96185.59;;;10.00;84.09
10978;BME280;5542;48.272;10.794;2022-10-31T03:54:46;96186.41;;;10.01;84.08
10978;BME280;5542;48.272;10.794;2022-10-31T03:57:23;96185.84;;;9.99;84.15
10978;BME280;5542;48.272;10.794;2022-10-31T03:59:53;96180.34;;;10.00;83.90
10978;BME280;5542;48.272;10.794;2022-10-31T04:02:27;96184.00;;;9.99;83.57
10978;BME280;5542;48.272;10.794;2022-10-31T04:04:56;96183.03;;;9.94;83.30
10978;BME280;5542;48.272;10.794;2022-10-31T04:07:27;96183.06;;;9.87;83.47
10978;BME280;5542;48.272;10.794;2022-10-31T04:09:55;96182.31;;;9.80;83.38
10978;BME280;5542;48.272;10.794;2022-10-31T04:12:24;96185.16;;;9.79;83.53
10978;BME280;5542;48.272;10.794;2022-10-31T04:14:52;96183.97;;;9.74;83.66
10978;BME280;5542;48.272;10.794;2022-10-31T04:17:23;96169.88;;;9.69;83.65
10978;BME280;5542;48.272;10.794;2022-10-31T04:19:53;96175.94;;;9.69;83.79
10978;BME280;5542;48.272;10.794;2022-10-31T04:22:20;96172.50;;;9.69;84.03
10978;BME280;5542;48.272;10.794;2022-10-31T04:24:46;96173.28;;;9.69;83.93
10978;BME280;5542;48.272;10.794;2022-10-31T04:27:13;96170.84;;;9.68;84.14
10978;BME280;5542;48.272;10.794;2022-10-31T04:29:39;96174.69;;;9.72;83.90
10978;BME280;5542;48.272;10.794;2022-10-31T04:32:06;96171.88;;;9.67;84.02
10978;BME280;5542;48.272;10.794;2022-10-31T04:34:34;96175.31;;;9.67;83.77
10978;BME280;5542;48.272;10.794;2022-10-31T04:37:00;96167.88;;;9.64;83.94
10978;BME280;5542;48.272;10.794;2022-10-31T04:39:27;96171.94;;;9.60;84.11
10978;BME280;5542;48.272;10.794;2022-10-31T04:41:53;96168.28;;;9.61;84.39
10978;BME280;5542;48.272;10.794;2022-10-31T04:44:20;96167.69;;;9.59;84.58
10978;BME280;5542;48.272;10.794;2022-10-31T04:46:47;96174.16;;;9.57;84.70
10978;BME280;5542;48.272;10.794;2022-10-31T04:49:13;96171.53;;;9.57;84.91
10978;BME280;5542;48.272;10.794;2022-10-31T04:51:41;96174.75;;;9.59;84.70
10978;BME280;5542;48.272;10.794;2022-10-31T04:54:08;96166.69;;;9.60;84.23
10978;BME280;5542;48.272;10.794;2022-10-31T04:56:34;96169.13;;;9.55;84.12
10978;BME280;5542;48.272;10.794;2022-10-31T04:59:01;96168.97;;;9.50;83.98
10978;BME280;5542;48.272;10.794;2022-10-31T05:01:27;96167.16;;;9.44;83.93
10978;BME280;5542;48.272;10.794;2022-10-31T05:03:54;96166.56;;;9.42;84.23
10978;BME280;5542;48.272;10.794;2022-10-31T05:06:20;96168.00;;;9.38;84.34
10978;BME280;5542;48.272;10.794;2022-10-31T05:08:48;96168.00;;;9.38;84.34
10978;BME280;5542;48.272;10.794;2022-10-31T05:11:15;96162.34;;;9.41;84.21
10978;BME280;5542;48.272;10.794;2022-10-31T05:13:42;96167.38;;;9.42;84.20
10978;BME280;5542;48.272;10.794;2022-10-31T05:16:08;96166.34;;;9.43;84.35
10978;BME280;5542;48.272;10.794;2022-10-31T05:18:35;96165.78;;;9.41;84.06
10978;BME280;5542;48.272;10.794;2022-10-31T05:21:02;96166.34;;;9.43;84.06
10978;BME280;5542;48.272;10.794;2022-10-31T05:23:28;96164.34;;;9.45;83.89
10978;BME280;5542;48.272;10.794;2022-10-31T05:25:56;96157.69;;;9.43;83.69
10978;BME280;5542;48.272;10.794;2022-10-31T05:28:23;96155.28;;;9.35;83.78
10978;BME280;5542;48.272;10.794;2022-10-31T05:30:50;96151.91;;;9.28;83.83
10978;BME280;5542;48.272;10.794;2022-10-31T05:33:16;96158.75;;;9.29;83.25
10978;BME280;5542;48.272;10.794;2022-10-31T05:35:43;96150.94;;;9.22;83.50
10978;BME280;5542;48.272;10.794;2022-10-31T05:38:09;96157.59;;;9.18;83.62
10978;BME280;5542;48.272;10.794;2022-10-31T05:40:36;96148.13;;;9.17;83.72
10978;BME280;5542;48.272;10.794;2022-10-31T05:43:04;96149.13;;;9.16;83.93
10978;BME280;5542;48.272;10.794;2022-10-31T05:45:30;96143.50;;;9.12;83.69
10978;BME280;5542;48.272;10.794;2022-10-31T05:47:58;96138.88;;;9.08;83.92
10978;BME280;5542;48.272;10.794;2022-10-31T05:50:26;96147.16;;;9.05;84.00
10978;BME280;5542;48.272;10.794;2022-10-31T05:52:57;96145.94;;;9.07;83.70
10978;BME280;5542;48.272;10.794;2022-10-31T05:55:24;96144.94;;;9.02;83.59
10978;BME280;5542;48.272;10.794;2022-10-31T05:57:51;96146.97;;;9.00;84.13
10978;BME280;5542;48.272;10.794;2022-10-31T06:00:20;96143.78;;;8.97;84.18
10978;BME280;5542;48.272;10.794;2022-10-31T06:02:47;96142.13;;;8.96;84.58
10978;BME280;5542;48.272;10.794;2022-10-31T06:05:14;96145.38;;;8.98;84.85
10978;BME280;5542;48.272;10.794;2022-10-31T06:07:41;96142.31;;;9.02;84.63
10978;BME280;5542;48.272;10.794;2022-10-31T06:10:09;96148.41;;;8.95;84.91
10978;BME280;5542;48.272;10.794;2022-10-31T06:12:35;96151.25;;;8.94;84.40
10978;BME280;5542;48.272;10.794;2022-10-31T06:15:04;96148.44;;;8.89;84.72
10978;BME280;5542;48.272;10.794;2022-10-31T06:17:32;96148.22;;;8.90;84.59
10978;BME280;5542;48.272;10.794;2022-10-31T06:19:59;96148.44;;;8.89;84.69
10978;BME280;5542;48.272;10.794;2022-10-31T06:22:26;96143.19;;;8.89;84.76
10978;BME280;5542;48.272;10.794;2022-10-31T06:24:53;96149.41;;;8.94;84.94
10978;BME280;5542;48.272;10.794;2022-10-31T06:27:19;96146.56;;;8.96;84.85
10978;BME280;5542;48.272;10.794;2022-10-31T06:29:46;96148.00;;;8.98;84.84
10978;BME280;5542;48.272;10.794;2022-10-31T06:32:13;96140.13;;;8.98;84.65
10978;BME280;5542;48.272;10.794;2022-10-31T06:34:41;96136.69;;;8.98;84.49
10978;BME280;5542;48.272;10.794;2022-10-31T06:37:09;96140.75;;;8.94;84.63
10978;BME280;5542;48.272;10.794;2022-10-31T06:39:36;96140.75;;;8.94;84.45
10978;BME280;5542;48.272;10.794;2022-10-31T06:42:03;96141.16;;;8.97;84.42
10978;BME280;5542;48.272;10.794;2022-10-31T06:44:30;96140.13;;;8.98;84.82
10978;BME280;5542;48.272;10.794;2022-10-31T06:46:57;96137.28;;;9.00;84.81
10978;BME280;5542;48.272;10.794;2022-10-31T06:49:23;96141.69;;;9.06;85.40
10978;BME280;5542;48.272;10.794;2022-10-31T06:51:51;96138.63;;;9.16;85.77
10978;BME280;5542;48.272;10.794;2022-10-31T06:54:18;96150.47;;;9.32;86.01
10978;BME280;5542;48.272;10.794;2022-10-31T06:56:45;96153.78;;;9.52;86.41
10978;BME280;5542;48.272;10.794;2022-10-31T06:59:12;96154.06;;;9.75;86.03
10978;BME280;5542;48.272;10.794;2022-10-31T07:01:38;96156.94;;;9.99;85.87
10978;BME280;5542;48.272;10.794;2022-10-31T07:04:05;96159.53;;;10.31;85.55
10978;BME280;5542;48.272;10.794;2022-10-31T07:06:32;96157.41;;;10.64;83.95
10978;BME280;5542;48.272;10.794;2022-10-31T07:09:00;96161.00;;;11.07;83.40
10978;BME280;5542;48.272;10.794;2022-10-31T07:11:26;96158.53;;;11.42;81.57
10978;BME280;5542;48.272;10.794;2022-10-31T07:13:53;96163.78;;;11.72;80.02
10978;BME280;5542;48.272;10.794;2022-10-31T07:16:19;96161.63;;;11.99;78.12
10978;BME280;5542;48.272;10.794;2022-10-31T07:18:46;96155.69;;;12.27;77.70
10978;BME280;5542;48.272;10.794;2022-10-31T07:21:12;96155.13;;;12.60;76.71
10978;BME280;5542;48.272;10.794;2022-10-31T07:23:39;96148.66;;;13.03;75.16
10978;BME280;5542;48.272;10.794;2022-10-31T07:26:07;96143.63;;;13.42;73.32
10978;BME280;5542;48.272;10.794;2022-10-31T07:28:34;96140.94;;;13.82;72.37
10978;BME280;5542;48.272;10.794;2022-10-31T07:31:00;96143.19;;;14.24;71.03
10978;BME280;5542;48.272;10.794;2022-10-31T07:33:27;96149.06;;;14.59;69.73
10978;BME280;5542;48.272;10.794;2022-10-31T07:35:54;96151.72;;;14.98;67.16
10978;BME280;5542;48.272;10.794;2022-10-31T07:38:20;96151.47;;;15.22;66.40
10978;BME280;5542;48.272;10.794;2022-10-31T07:40:50;96150.56;;;15.60;64.70
10978;BME280;5542;48.272;10.794;2022-10-31T07:43:18;96154.06;;;15.87;63.38
10978;BME280;5542;48.272;10.794;2022-10-31T07:45:49;96154.28;;;16.13;61.77
10978;BME280;5542;48.272;10.794;2022-10-31T07:48:16;96147.34;;;16.39;60.96
10978;BME280;5542;48.272;10.794;2022-10-31T07:50:43;96142.16;;;16.59;58.88
10978;BME280;5542;48.272;10.794;2022-10-31T07:53:11;96145.81;;;16.85;58.13
10978;BME280;5542;48.272;10.794;2022-10-31T07:55:37;96143.44;;;16.89;56.83
10978;BME280;5542;48.272;10.794;2022-10-31T07:58:05;96142.41;;;16.95;57.30
10978;BME280;5542;48.272;10.794;2022-10-31T08:00:35;96148.84;;;17.04;58.13
10978;BME280;5542;48.272;10.794;2022-10-31T08:03:03;96134.84;;;17.29;57.03
10978;BME280;5542;48.272;10.794;2022-10-31T08:05:30;96134.41;;;17.53;55.13
10978;BME280;5542;48.272;10.794;2022-10-31T08:07:57;96127.84;;;17.76;54.31
10978;BME280;5542;48.272;10.794;2022-10-31T08:10:25;96129.72;;;18.01;51.88
10978;BME280;5542;48.272;10.794;2022-10-31T08:12:56;96126.50;;;18.04;52.17
10978;BME280;5542;48.272;10.794;2022-10-31T08:15:23;96121.75;;;18.01;51.94
10978;BME280;5542;48.272;10.794;2022-10-31T08:17:51;96123.06;;;17.93;51.99
10978;BME280;5542;48.272;10.794;2022-10-31T08:20:17;96119.59;;;17.82;52.07
10978;BME280;5542;48.272;10.794;2022-10-31T08:22:55;96132.25;;;17.55;53.66
10978;BME280;5542;48.272;10.794;2022-10-31T08:25:22;96132.72;;;17.31;54.53
10978;BME280;5542;48.272;10.794;2022-10-31T08:27:50;96128.16;;;17.22;55.41
10978;BME280;5542;48.272;10.794;2022-10-31T08:30:17;96125.28;;;17.28;55.96
10978;BME280;5542;48.272;10.794;2022-10-31T08:32:43;96123.94;;;17.31;55.64
10978;BME280;5542;48.272;10.794;2022-10-31T08:35:11;96125.28;;;17.28;55.35
10978;BME280;5542;48.272;10.794;2022-10-31T08:37:38;96125.56;;;17.42;55.33
10978;BME280;5542;48.272;10.794;2022-10-31T08:40:06;96118.94;;;17.39;56.61
10978;BME280;5542;48.272;10.794;2022-10-31T08:42:32;96121.88;;;17.38;55.76
10978;BME280;5542;48.272;10.794;2022-10-31T08:44:59;96111.47;;;17.41;55.87
10978;BME280;5542;48.272;10.794;2022-10-31T08:47:25;96113.91;;;17.43;54.59
10978;BME280;5542;48.272;10.794;2022-10-31T08:49:53;96109.59;;;17.32;54.90
10978;BME280;5542;48.272;10.794;2022-10-31T08:52:23;96112.81;;;17.34;55.49
10978;BME280;5542;48.272;10.794;2022-10-31T08:54:51;96098.91;;;17.17;54.92
10978;BME280;5542;48.272;10.794;2022-10-31T08:57:17;96113.22;;;17.05;56.54
10978;BME280;5542;48.272;10.794;2022-10-31T08:59:44;96104.66;;;16.93;57.43
10978;BME280;5542;48.272;10.794;2022-10-31T09:02:11;96107.06;;;16.95;58.90
10978;BME280;5542;48.272;10.794;2022-10-31T09:04:37;96099.38;;;17.03;58.92
10978;BME280;5542;48.272;10.794;2022-10-31T09:07:04;96097.84;;;17.12;59.20
10978;BME280;5542;48.272;10.794;2022-10-31T09:09:32;96093.88;;;17.15;58.80
10978;BME280;5542;48.272;10.794;2022-10-31T09:11:58;96088.53;;;17.10;58.39
10978;BME280;5542;48.272;10.794;2022-10-31T09:14:25;96091.41;;;16.98;57.79
10978;BME280;5542;48.272;10.794;2022-10-31T09:16:51;96086.81;;;16.78;58.43
10978;BME280;5542;48.272;10.794;2022-10-31T09:19:18;96083.06;;;16.74;59.79
10978;BME280;5542;48.272;10.794;2022-10-31T09:21:44;96076.75;;;16.85;60.08
10978;BME280;5542;48.272;10.794;2022-10-31T09:24:11;96082.06;;;16.85;60.47
10978;BME280;5542;48.272;10.794;2022-10-31T09:26:39;96077.00;;;16.89;60.84
10978;BME280;5542;48.272;10.794;2022-10-31T09:29:05;96073.38;;;17.00;61.55
10978;BME280;5542;48.272;10.794;2022-10-31T09:31:34;96068.06;;;17.05;61.73
10978;BME280;5542;48.272;10.794;2022-10-31T09:34:01;96076.03;;;17.00;62.13
10978;BME280;5542;48.272;10.794;2022-10-31T09:36:28;96066.50;;;17.09;62.25
10978;BME280;5542;48.272;10.794;2022-10-31T09:38:54;96068.09;;;17.15;62.40
10978;BME280;5542;48.272;10.794;2022-10-31T09:41:26;96061.44;;;17.13;62.70
10978;BME280;5542;48.272;10.794;2022-10-31T09:44:03;96058.50;;;17.04;62.49
10978;BME280;5542;48.272;10.794;2022-10-31T09:46:38;96056.63;;;17.00;62.70
10978;BME280;5542;48.272;10.794;2022-10-31T09:49:28;96058.41;;;16.84;63.72
10978;BME280;5542;48.272;10.794;2022-10-31T09:52:01;96067.31;;;16.62;65.09
10978;BME280;5542;48.272;10.794;2022-10-31T09:54:34;96065.44;;;16.58;65.73
10978;BME280;5542;48.272;10.794;2022-10-31T09:57:02;96061.41;;;16.55;66.92
10978;BME280;5542;48.272;10.794;2022-10-31T09:59:33;96060.19;;;16.26;68.95
10978;BME280;5542;48.272;10.794;2022-10-31T10:02:02;96056.50;;;16.32;69.02
10978;BME280;5542;48.272;10.794;2022-10-31T10:04:36;96054.19;;;16.41;69.00
10978;BME280;5542;48.272;10.794;2022-10-31T10:07:11;96045.09;;;16.31;69.50
10978;BME280;5542;48.272;10.794;2022-10-31T10:09:38;96046.25;;;16.46;69.62
10978;BME280;5542;48.272;10.794;2022-10-31T10:12:09;96043.06;;;16.44;70.05
10978;BME280;5542;48.272;10.794;2022-10-31T10:14:51;96049.16;;;16.44;69.82
10978;BME280;5542;48.272;10.794;2022-10-31T10:17:30;96052.75;;;16.28;71.46
10978;BME280;5542;48.272;10.794;2022-10-31T10:20:16;96046.50;;;16.44;71.24
10978;BME280;5542;48.272;10.794;2022-10-31T10:22:54;96058.44;;;16.47;71.11
10978;BME280;5542;48.272;10.794;2022-10-31T10:25:23;96043.91;;;16.54;70.95
10978;BME280;5542;48.272;10.794;2022-10-31T10:27:59;96050.59;;;16.62;71.37
10978;BME280;5542;48.272;10.794;2022-10-31T10:30:34;96049.25;;;16.64;70.96
10978;BME280;5542;48.272;10.794;2022-10-31T10:33:07;96050.13;;;16.75;71.31
10978;BME280;5542;48.272;10.794;2022-10-31T10:35:39;96044.34;;;16.88;70.74
10978;BME280;5542;48.272;10.794;2022-10-31T10:38:13;96042.56;;;17.04;71.08
10978;BME280;5542;48.272;10.794;2022-10-31T10:40:41;96039.06;;;16.99;70.27
10978;BME280;5542;48.272;10.794;2022-10-31T10:43:20;96037.47;;;16.98;70.94
10978;BME280;5542;48.272;10.794;2022-10-31T10:49:02;96024.50;;;17.17;69.83
10978;BME280;5542;48.272;10.794;2022-10-31T10:51:36;96016.53;;;17.11;69.78
10978;BME280;5542;48.272;10.794;2022-10-31T10:54:26;96016.78;;;17.05;70.98
10978;BME280;5542;48.272;10.794;2022-10-31T10:57:07;96018.38;;;17.11;71.67
10978;BME280;5542;48.272;10.794;2022-10-31T10:59:37;96015.22;;;17.19;71.77
10978;BME280;5542;48.272;10.794;2022-10-31T11:02:16;96011.25;;;17.32;71.61
10978;BME280;5542;48.272;10.794;2022-10-31T11:04:43;96008.06;;;17.40;69.84
10978;BME280;5542;48.272;10.794;2022-10-31T11:07:11;96006.19;;;17.35;70.10
10978;BME280;5542;48.272;10.794;2022-10-31T11:09:38;96000.66;;;17.57;68.75
10978;BME280;5542;48.272;10.794;2022-10-31T11:12:08;96002.47;;;17.36;69.63
10978;BME280;5542;48.272;10.794;2022-10-31T11:14:42;96003.50;;;17.15;70.78
10978;BME280;5542;48.272;10.794;2022-10-31T11:17:20;95997.94;;;17.32;71.17
10978;BME280;5542;48.272;10.794;2022-10-31T11:19:59;96002.19;;;17.23;72.42
10978;BME280;5542;48.272;10.794;2022-10-31T11:22:26;95996.34;;;17.26;73.06
10978;BME280;5542;48.272;10.794;2022-10-31T11:24:53;95992.91;;;17.56;69.82
10978;BME280;5542;48.272;10.794;2022-10-31T11:27:20;95999.03;;;17.46;69.88
10978;BME280;5542;48.272;10.794;2022-10-31T11:29:48;95992.41;;;17.44;70.87
10978;BME280;5542;48.272;10.794;2022-10-31T11:32:20;95988.38;;;17.51;71.07
10978;BME280;5542;48.272;10.794;2022-10-31T11:34:49;95990.81;;;17.53;71.26
10978;BME280;5542;48.272;10.794;2022-10-31T11:37:20;95993.72;;;17.72;70.21
10978;BME280;5542;48.272;10.794;2022-10-31T11:39:50;95986.78;;;17.65;70.13
10978;BME280;5542;48.272;10.794;2022-10-31T11:42:21;95987.88;;;17.75;70.73
10978;BME280;5542;48.272;10.794;2022-10-31T11:44:50;95983.38;;;17.80;70.10
10978;BME280;5542;48.272;10.794;2022-10-31T11:47:23;95981.22;;;17.72;70.46
10978;BME280;5542;48.272;10.794;2022-10-31T11:49:51;95982.03;;;17.73;70.74
10978;BME280;5542;48.272;10.794;2022-10-31T11:52:21;95969.78;;;17.72;72.01
10978;BME280;5542;48.272;10.794;2022-10-31T11:54:53;95964.22;;;17.83;71.04
10978;BME280;5542;48.272;10.794;2022-10-31T11:57:22;95965.53;;;18.01;70.26
10978;BME280;5542;48.272;10.794;2022-10-31T11:59:51;95966.06;;;17.88;71.12
10978;BME280;5542;48.272;10.794;2022-10-31T12:02:20;95960.22;;;17.91;70.74
10978;BME280;5542;48.272;10.794;2022-10-31T12:04:51;95970.56;;;17.98;70.94
10978;BME280;5542;48.272;10.794;2022-10-31T12:07:19;95960.75;;;17.93;71.49
10978;BME280;5542;48.272;10.794;2022-10-31T12:09:46;95957.25;;;18.03;71.45
10978;BME280;5542;48.272;10.794;2022-10-31T12:12:35;95957.53;;;18.06;70.99
10978;BME280;5542;48.272;10.794;2022-10-31T12:15:18;95943.69;;;18.14;71.47
10978;BME280;5542;48.272;10.794;2022-10-31T12:17:56;95944.22;;;18.11;70.99
10978;BME280;5542;48.272;10.794;2022-10-31T12:20:33;95935.13;;;18.23;70.73
10978;BME280;5542;48.272;10.794;2022-10-31T12:23:06;95930.06;;;18.26;70.06
10978;BME280;5542;48.272;10.794;2022-10-31T12:25:41;95930.31;;;18.30;70.42
10978;BME280;5542;48.272;10.794;2022-10-31T12:28:34;95926.31;;;18.27;70.51
10978;BME280;5542;48.272;10.794;2022-10-31T12:31:19;95926.28;;;18.32;69.60
10978;BME280;5542;48.272;10.794;2022-10-31T12:34:00;95922.28;;;18.40;68.86
10978;BME280;5542;48.272;10.794;2022-10-31T12:36:42;95918.50;;;18.51;67.25
10978;BME280;5542;48.272;10.794;2022-10-31T12:39:31;95915.03;;;18.51;68.23
10978;BME280;5542;48.272;10.794;2022-10-31T12:42:08;95919.53;;;18.60;69.01
10978;BME280;5542;48.272;10.794;2022-10-31T12:44:53;95915.84;;;18.56;67.91
10978;BME280;5542;48.272;10.794;2022-10-31T12:47:38;95907.88;;;18.46;68.79
10978;BME280;5542;48.272;10.794;2022-10-31T12:50:22;95905.22;;;18.41;69.25
10978;BME280;5542;48.272;10.794;2022-10-31T12:52:59;95897.22;;;18.46;68.96
10978;BME280;5542;48.272;10.794;2022-10-31T12:55:38;95899.13;;;18.35;69.44
10978;BME280;5542;48.272;10.794;2022-10-31T12:58:09;95895.94;;;18.38;69.28
10978;BME280;5542;48.272;10.794;2022-10-31T13:00:43;95894.03;;;18.44;68.66
10978;BME280;5542;48.272;10.794;2022-10-31T13:03:20;95892.19;;;18.39;68.56
10978;BME280;5542;48.272;10.794;2022-10-31T13:05:53;95891.44;;;18.34;68.82
10978;BME280;5542;48.272;10.794;2022-10-31T13:08:24;95882.88;;;18.42;68.80
10978;BME280;5542;48.272;10.794;2022-10-31T13:11:03;95882.88;;;18.37;69.01
10978;BME280;5542;48.272;10.794;2022-10-31T13:13:36;95889.56;;;18.34;69.92
10978;BME280;5542;48.272;10.794;2022-10-31T13:16:09;95878.38;;;18.32;70.32
10978;BME280;5542;48.272;10.794;2022-10-31T13:18:40;95872.06;;;18.23;70.90
10978;BME280;5542;48.272;10.794;2022-10-31T13:21:14;95874.88;;;18.42;70.11
10978;BME280;5542;48.272;10.794;2022-10-31T13:23:44;95876.72;;;18.41;69.76